Kingston, Utah
Current Conditions -  °F | °C
As of 11:53 PM on Saturday 20 Dec 2014 (Local Time) from KBCE Reporting Station
Clear Clear  
Wind Chill: 17°   Ceiling: Unl
Heat Index: 23°   Visibility: 10mi
Dew Point: 19°   Wind: 5mph
Humidity: 85%   Direction: 290°WNW
Pressure: 30.11"   Gusts: NA
Location:  38.21°N, 112.19°W
Report Text: KBCE 210653Z AUTO 29004KT 10SM CLR M05/M07 A3011 RMK AO2 SLP191 T10501072 400061117
Loading
Personal Weather Stations






























Interactive Weather Map New forecast layout! Learn more

10-Day Weather Forecast

Advertisements
Track Severe Weather on mobile